createdAt,value
2022-09-07T03:31:28.229Z,22.60
2022-09-07T03:46:32.761Z,22.50
2022-09-07T04:01:37.348Z,22.60
2022-09-07T04:16:42.014Z,22.50
2022-09-07T04:31:46.548Z,22.10
2022-09-07T04:46:51.172Z,22.10
2022-09-07T05:01:55.686Z,22.10
2022-09-07T05:17:00.333Z,21.90
2022-09-07T05:32:05.016Z,21.90
2022-09-07T05:47:09.646Z,22.00
2022-09-07T06:02:15.652Z,22.20
2022-09-07T06:17:20.426Z,21.90
2022-09-07T06:47:49.501Z,22.20
2022-09-07T07:02:53.887Z,22.10
2022-09-07T07:18:09.304Z,22.20
2022-09-07T07:33:23.133Z,22.50
2022-09-07T07:48:27.736Z,22.70
2022-09-07T08:03:35.156Z,22.60
2022-09-07T08:18:41.007Z,22.70
2022-09-07T08:33:45.849Z,22.90
2022-09-07T08:48:50.813Z,23.00
2022-09-07T09:19:39.413Z,23.30
2022-09-07T09:35:02.247Z,23.70
2022-09-07T09:52:29.151Z,23.20
2022-09-07T10:05:43.106Z,23.10
2022-09-07T10:20:47.486Z,23.90
2022-09-07T10:35:58.160Z,23.70
2022-09-07T10:51:13.705Z,23.90
2022-09-07T11:06:22.916Z,23.70
2022-09-07T11:37:01.895Z,24.30
2022-09-07T11:52:11.456Z,24.10
2022-09-07T12:07:33.558Z,23.90
2022-09-07T12:22:38.778Z,23.80
2022-09-07T12:37:44.915Z,23.60
2022-09-07T12:53:20.595Z,23.70
2022-09-07T13:08:52.279Z,22.90
2022-09-07T13:24:49.857Z,22.90
2022-09-07T13:39:57.149Z,23.10
2022-09-07T13:55:25.966Z,23.10
2022-09-07T14:10:30.637Z,23.40
2022-09-07T14:26:15.912Z,23.70
2022-09-07T14:41:02.504Z,23.70
2022-09-07T14:56:11.955Z,23.80
2022-09-07T15:11:37.676Z,23.30
2022-09-07T15:57:59.281Z,23.50
2022-09-07T16:13:01.214Z,23.50
2022-09-07T16:28:07.690Z,23.40
2022-09-07T16:43:12.055Z,23.40
2022-09-07T17:13:42.318Z,22.30
2022-09-07T17:28:50.215Z,22.40
2022-09-07T17:43:56.257Z,22.80
2022-09-07T18:14:26.926Z,22.80
2022-09-07T18:29:34.029Z,22.30
2022-09-07T19:00:05.643Z,22.40
2022-09-07T19:15:11.236Z,22.60
2022-09-07T19:30:17.316Z,22.50
2022-09-07T19:45:21.630Z,22.10
2022-09-07T20:00:26.036Z,22.00
2022-09-07T20:15:30.478Z,21.90
2022-09-07T20:46:06.148Z,21.90
2022-09-07T21:01:11.596Z,21.60
2022-09-07T21:16:17.885Z,22.00
2022-09-07T21:31:22.413Z,21.20
2022-09-07T21:46:27.825Z,21.30
2022-09-07T22:01:32.423Z,21.30
2022-09-07T22:16:36.947Z,21.60
2022-09-07T22:31:42.346Z,21.60
2022-09-07T22:46:48.256Z,21.50
2022-09-07T23:01:52.635Z,21.40
2022-09-07T23:16:57.059Z,20.90
2022-09-07T23:32:01.385Z,20.90
2022-09-07T23:47:05.869Z,21.00
